sensor_id;sensor_type;location;lat;lon;timestamp;P1;durP1;ratioP1;P2;durP2;ratioP2
29002;SDS011;16102;57.138;-2.118;2022-10-16T00:01:07;0.98;;;0.68;;
29002;SDS011;16102;57.138;-2.118;2022-10-16T00:03:35;4.70;;;1.07;;
29002;SDS011;16102;57.138;-2.118;2022-10-16T00:06:03;2.85;;;0.60;;
29002;SDS011;16102;57.138;-2.118;2022-10-16T00:08:30;3.10;;;0.70;;
29002;SDS011;16102;57.138;-2.118;2022-10-16T00:11:01;4.85;;;0.60;;
29002;SDS011;16102;57.138;-2.118;2022-10-16T00:13:30;6.03;;;0.60;;
29002;SDS011;16102;57.138;-2.118;2022-10-16T00:15:59;5.18;;;1.30;;
29002;SDS011;16102;57.138;-2.118;2022-10-16T00:18:26;10.45;;;2.80;;
29002;SDS011;16102;57.138;-2.118;2022-10-16T00:20:54;2.08;;;0.63;;
29002;SDS011;16102;57.138;-2.118;2022-10-16T00:23:21;4.47;;;0.98;;
29002;SDS011;16102;57.138;-2.118;2022-10-16T00:25:58;2.83;;;0.63;;
29002;SDS011;16102;57.138;-2.118;2022-10-16T00:28:27;1.90;;;0.45;;
29002;SDS011;16102;57.138;-2.118;2022-10-16T00:30:54;1.92;;;0.47;;
29002;SDS011;16102;57.138;-2.118;2022-10-16T00:33:21;2.35;;;0.40;;
29002;SDS011;16102;57.138;-2.118;2022-10-16T00:35:49;1.25;;;0.20;;
29002;SDS011;16102;57.138;-2.118;2022-10-16T00:38:16;0.30;;;0.20;;
29002;SDS011;16102;57.138;-2.118;2022-10-16T00:40:43;4.43;;;0.55;;
29002;SDS011;16102;57.138;-2.118;2022-10-16T00:46:20;1.80;;;0.47;;
29002;SDS011;16102;57.138;-2.118;2022-10-16T00:49:08;1.35;;;0.43;;
29002;SDS011;16102;57.138;-2.118;2022-10-16T00:51:50;2.10;;;0.50;;
29002;SDS011;16102;57.138;-2.118;2022-10-16T00:54:23;2.60;;;0.43;;
29002;SDS011;16102;57.138;-2.118;2022-10-16T00:56:53;3.58;;;0.50;;
29002;SDS011;16102;57.138;-2.118;2022-10-16T00:59:24;0.85;;;0.32;;
29002;SDS011;16102;57.138;-2.118;2022-10-16T01:01:54;2.15;;;0.50;;
29002;SDS011;16102;57.138;-2.118;2022-10-16T01:04:22;0.73;;;0.20;;
29002;SDS011;16102;57.138;-2.118;2022-10-16T01:18:12;0.85;;;0.25;;
29002;SDS011;16102;57.138;-2.118;2022-10-16T01:20:59;0.13;;;0.10;;
29002;SDS011;16102;57.138;-2.118;2022-10-16T01:23:31;1.40;;;0.65;;
29002;SDS011;16102;57.138;-2.118;2022-10-16T01:29:05;2.42;;;0.70;;
29002;SDS011;16102;57.138;-2.118;2022-10-16T01:31:35;1.55;;;0.60;;
29002;SDS011;16102;57.138;-2.118;2022-10-16T01:34:07;2.05;;;0.38;;
29002;SDS011;16102;57.138;-2.118;2022-10-16T01:36:43;0.50;;;0.25;;
29002;SDS011;16102;57.138;-2.118;2022-10-16T01:39:14;0.40;;;0.10;;
29002;SDS011;16102;57.138;-2.118;2022-10-16T01:41:47;3.22;;;0.50;;
29002;SDS011;16102;57.138;-2.118;2022-10-16T01:44:22;0.52;;;0.10;;
29002;SDS011;16102;57.138;-2.118;2022-10-16T01:46:54;4.13;;;1.10;;
29002;SDS011;16102;57.138;-2.118;2022-10-16T01:49:23;0.20;;;0.15;;
29002;SDS011;16102;57.138;-2.118;2022-10-16T01:51:54;0.88;;;0.10;;
29002;SDS011;16102;57.138;-2.118;2022-10-16T01:54:30;1.73;;;0.20;;
29002;SDS011;16102;57.138;-2.118;2022-10-16T01:56:59;1.85;;;0.50;;
29002;SDS011;16102;57.138;-2.118;2022-10-16T01:59:28;3.83;;;0.38;;
29002;SDS011;16102;57.138;-2.118;2022-10-16T02:02:00;2.70;;;0.50;;
29002;SDS011;16102;57.138;-2.118;2022-10-16T02:04:31;2.10;;;0.40;;
29002;SDS011;16102;57.138;-2.118;2022-10-16T02:07:02;1.42;;;0.30;;
29002;SDS011;16102;57.138;-2.118;2022-10-16T02:09:30;0.93;;;0.30;;
29002;SDS011;16102;57.138;-2.118;2022-10-16T02:12:01;1.90;;;0.35;;
29002;SDS011;16102;57.138;-2.118;2022-10-16T02:14:36;3.08;;;0.98;;
29002;SDS011;16102;57.138;-2.118;2022-10-16T02:17:09;0.95;;;0.20;;
29002;SDS011;16102;57.138;-2.118;2022-10-16T02:19:42;0.47;;;0.28;;
29002;SDS011;16102;57.138;-2.118;2022-10-16T02:22:15;1.40;;;0.52;;
29002;SDS011;16102;57.138;-2.118;2022-10-16T02:25:08;0.10;;;0.10;;
29002;SDS011;16102;57.138;-2.118;2022-10-16T02:27:48;1.38;;;0.30;;
29002;SDS011;16102;57.138;-2.118;2022-10-16T02:30:24;0.90;;;0.10;;
29002;SDS011;16102;57.138;-2.118;2022-10-16T02:32:55;0.35;;;0.30;;
29002;SDS011;16102;57.138;-2.118;2022-10-16T02:35:24;0.20;;;0.20;;
29002;SDS011;16102;57.138;-2.118;2022-10-16T02:37:53;0.43;;;0.15;;
29002;SDS011;16102;57.138;-2.118;2022-10-16T02:40:22;0.85;;;0.22;;
29002;SDS011;16102;57.138;-2.118;2022-10-16T02:42:51;0.32;;;0.25;;
29002;SDS011;16102;57.138;-2.118;2022-10-16T02:45:20;1.23;;;0.40;;
29002;SDS011;16102;57.138;-2.118;2022-10-16T02:47:48;1.45;;;0.20;;
29002;SDS011;16102;57.138;-2.118;2022-10-16T02:50:15;0.43;;;0.20;;
29002;SDS011;16102;57.138;-2.118;2022-10-16T02:52:42;1.27;;;0.20;;
29002;SDS011;16102;57.138;-2.118;2022-10-16T02:55:09;0.32;;;0.15;;
29002;SDS011;16102;57.138;-2.118;2022-10-16T02:57:36;1.02;;;0.25;;
29002;SDS011;16102;57.138;-2.118;2022-10-16T03:00:07;0.20;;;0.20;;
29002;SDS011;16102;57.138;-2.118;2022-10-16T03:02:36;0.05;;;0.00;;
29002;SDS011;16102;57.138;-2.118;2022-10-16T03:05:03;0.75;;;0.10;;
29002;SDS011;16102;57.138;-2.118;2022-10-16T03:07:30;0.20;;;0.00;;
29002;SDS011;16102;57.138;-2.118;2022-10-16T03:09:57;0.20;;;0.00;;
29002;SDS011;16102;57.138;-2.118;2022-10-16T03:12:27;0.20;;;0.20;;
29002;SDS011;16102;57.138;-2.118;2022-10-16T03:14:57;0.00;;;0.00;;
29002;SDS011;16102;57.138;-2.118;2022-10-16T03:17:24;0.00;;;0.00;;
29002;SDS011;16102;57.138;-2.118;2022-10-16T03:19:52;0.17;;;0.17;;
29002;SDS011;16102;57.138;-2.118;2022-10-16T03:22:19;0.00;;;0.00;;
29002;SDS011;16102;57.138;-2.118;2022-10-16T03:24:46;0.00;;;0.00;;
29002;SDS011;16102;57.138;-2.118;2022-10-16T03:27:12;0.00;;;0.00;;
29002;SDS011;16102;57.138;-2.118;2022-10-16T03:29:39;0.00;;;0.00;;
29002;SDS011;16102;57.138;-2.118;2022-10-16T03:32:06;0.00;;;0.00;;
29002;SDS011;16102;57.138;-2.118;2022-10-16T03:34:33;0.00;;;0.00;;
29002;SDS011;16102;57.138;-2.118;2022-10-16T03:37:00;0.00;;;0.00;;
29002;SDS011;16102;57.138;-2.118;2022-10-16T03:39:27;0.47;;;0.03;;
29002;SDS011;16102;57.138;-2.118;2022-10-16T03:41:54;0.00;;;0.00;;
29002;SDS011;16102;57.138;-2.118;2022-10-16T03:44:21;0.00;;;0.00;;
29002;SDS011;16102;57.138;-2.118;2022-10-16T03:46:47;0.00;;;0.00;;
29002;SDS011;16102;57.138;-2.118;2022-10-16T03:49:14;0.00;;;0.00;;
29002;SDS011;16102;57.138;-2.118;2022-10-16T03:51:41;0.00;;;0.00;;
29002;SDS011;16102;57.138;-2.118;2022-10-16T03:54:09;0.28;;;0.00;;
29002;SDS011;16102;57.138;-2.118;2022-10-16T03:56:36;0.15;;;0.00;;
29002;SDS011;16102;57.138;-2.118;2022-10-16T03:59:03;0.00;;;0.00;;
29002;SDS011;16102;57.138;-2.118;2022-10-16T04:01:30;0.00;;;0.00;;
29002;SDS011;16102;57.138;-2.118;2022-10-16T04:03:57;0.20;;;0.00;;
29002;SDS011;16102;57.138;-2.118;2022-10-16T04:06:24;0.05;;;0.00;;
29002;SDS011;16102;57.138;-2.118;2022-10-16T04:08:51;0.00;;;0.00;;
29002;SDS011;16102;57.138;-2.118;2022-10-16T04:11:18;0.00;;;0.00;;
29002;SDS011;16102;57.138;-2.118;2022-10-16T04:13:45;0.00;;;0.00;;
29002;SDS011;16102;57.138;-2.118;2022-10-16T04:16:12;0.00;;;0.00;;
29002;SDS011;16102;57.138;-2.118;2022-10-16T04:18:39;0.00;;;0.00;;
29002;SDS011;16102;57.138;-2.118;2022-10-16T04:21:06;0.00;;;0.00;;
29002;SDS011;16102;57.138;-2.118;2022-10-16T04:23:33;0.00;;;0.00;;
29002;SDS011;16102;57.138;-2.118;2022-10-16T04:26:00;0.00;;;0.00;;
29002;SDS011;16102;57.138;-2.118;2022-10-16T04:28:27;0.70;;;0.20;;
29002;SDS011;16102;57.138;-2.118;2022-10-16T04:30:54;0.00;;;0.00;;
29002;SDS011;16102;57.138;-2.118;2022-10-16T04:33:21;0.10;;;0.00;;
29002;SDS011;16102;57.138;-2.118;2022-10-16T04:35:55;0.25;;;0.08;;
29002;SDS011;16102;57.138;-2.118;2022-10-16T04:38:23;1.55;;;0.00;;
29002;SDS011;16102;57.138;-2.118;2022-10-16T04:40:50;0.00;;;0.00;;
29002;SDS011;16102;57.138;-2.118;2022-10-16T04:43:17;0.10;;;0.00;;
29002;SDS011;16102;57.138;-2.118;2022-10-16T04:45:44;0.70;;;0.08;;
29002;SDS011;16102;57.138;-2.118;2022-10-16T04:48:11;0.45;;;0.10;;
29002;SDS011;16102;57.138;-2.118;2022-10-16T04:50:38;0.05;;;0.00;;
29002;SDS011;16102;57.138;-2.118;2022-10-16T04:53:05;0.00;;;0.00;;
29002;SDS011;16102;57.138;-2.118;2022-10-16T04:55:33;0.00;;;0.00;;
29002;SDS011;16102;57.138;-2.118;2022-10-16T04:58:00;0.38;;;0.10;;
29002;SDS011;16102;57.138;-2.118;2022-10-16T05:00:27;0.10;;;0.00;;
29002;SDS011;16102;57.138;-2.118;2022-10-16T05:02:54;0.00;;;0.00;;
29002;SDS011;16102;57.138;-2.118;2022-10-16T05:05:21;0.65;;;0.10;;
29002;SDS011;16102;57.138;-2.118;2022-10-16T05:07:48;0.00;;;0.00;;
29002;SDS011;16102;57.138;-2.118;2022-10-16T05:10:15;0.00;;;0.00;;
29002;SDS011;16102;57.138;-2.118;2022-10-16T05:12:42;0.40;;;0.10;;
29002;SDS011;16102;57.138;-2.118;2022-10-16T05:15:10;0.43;;;0.10;;
29002;SDS011;16102;57.138;-2.118;2022-10-16T05:17:37;0.15;;;0.05;;
29002;SDS011;16102;57.138;-2.118;2022-10-16T05:20:09;0.40;;;0.10;;
29002;SDS011;16102;57.138;-2.118;2022-10-16T05:22:37;0.10;;;0.10;;
29002;SDS011;16102;57.138;-2.118;2022-10-16T05:25:04;0.00;;;0.00;;
29002;SDS011;16102;57.138;-2.118;2022-10-16T05:27:31;0.00;;;0.00;;
29002;SDS011;16102;57.138;-2.118;2022-10-16T05:29:58;0.10;;;0.00;;
29002;SDS011;16102;57.138;-2.118;2022-10-16T05:32:25;1.15;;;0.25;;
29002;SDS011;16102;57.138;-2.118;2022-10-16T05:34:52;0.28;;;0.00;;
29002;SDS011;16102;57.138;-2.118;2022-10-16T05:37:19;0.17;;;0.10;;
29002;SDS011;16102;57.138;-2.118;2022-10-16T05:39:46;0.10;;;0.10;;
29002;SDS011;16102;57.138;-2.118;2022-10-16T05:42:13;1.10;;;0.10;;
29002;SDS011;16102;57.138;-2.118;2022-10-16T05:44:40;1.25;;;0.25;;
29002;SDS011;16102;57.138;-2.118;2022-10-16T05:47:07;0.10;;;0.03;;
29002;SDS011;16102;57.138;-2.118;2022-10-16T05:49:34;0.00;;;0.00;;
29002;SDS011;16102;57.138;-2.118;2022-10-16T05:52:06;3.30;;;0.10;;
29002;SDS011;16102;57.138;-2.118;2022-10-16T05:54:33;3.20;;;0.10;;
29002;SDS011;16102;57.138;-2.118;2022-10-16T05:57:00;0.00;;;0.00;;
29002;SDS011;16102;57.138;-2.118;2022-10-16T05:59:28;1.60;;;0.28;;
29002;SDS011;16102;57.138;-2.118;2022-10-16T06:01:55;1.45;;;0.08;;
29002;SDS011;16102;57.138;-2.118;2022-10-16T06:04:21;1.10;;;0.50;;
29002;SDS011;16102;57.138;-2.118;2022-10-16T06:06:48;0.75;;;0.03;;
29002;SDS011;16102;57.138;-2.118;2022-10-16T06:09:15;2.00;;;0.20;;
29002;SDS011;16102;57.138;-2.118;2022-10-16T06:11:42;0.40;;;0.10;;
29002;SDS011;16102;57.138;-2.118;2022-10-16T06:14:09;0.57;;;0.10;;
29002;SDS011;16102;57.138;-2.118;2022-10-16T06:16:36;1.00;;;0.10;;
29002;SDS011;16102;57.138;-2.118;2022-10-16T06:19:04;2.17;;;0.28;;
29002;SDS011;16102;57.138;-2.118;2022-10-16T06:21:35;0.00;;;0.00;;
29002;SDS011;16102;57.138;-2.118;2022-10-16T06:24:02;1.15;;;0.15;;
29002;SDS011;16102;57.138;-2.118;2022-10-16T06:26:29;0.40;;;0.10;;
29002;SDS011;16102;57.138;-2.118;2022-10-16T06:28:58;1.17;;;0.20;;
29002;SDS011;16102;57.138;-2.118;2022-10-16T06:31:26;0.10;;;0.00;;
29002;SDS011;16102;57.138;-2.118;2022-10-16T06:33:55;1.02;;;0.20;;
29002;SDS011;16102;57.138;-2.118;2022-10-16T06:36:23;1.08;;;0.10;;
29002;SDS011;16102;57.138;-2.118;2022-10-16T06:38:51;0.00;;;0.00;;
29002;SDS011;16102;57.138;-2.118;2022-10-16T06:41:21;0.05;;;0.00;;
29002;SDS011;16102;57.138;-2.118;2022-10-16T06:43:48;0.00;;;0.00;;
29002;SDS011;16102;57.138;-2.118;2022-10-16T06:46:16;0.00;;;0.00;;
29002;SDS011;16102;57.138;-2.118;2022-10-16T06:48:45;2.72;;;0.10;;
29002;SDS011;16102;57.138;-2.118;2022-10-16T06:51:13;0.25;;;0.10;;
29002;SDS011;16102;57.138;-2.118;2022-10-16T06:53:46;0.75;;;0.10;;
29002;SDS011;16102;57.138;-2.118;2022-10-16T06:56:33;1.52;;;0.10;;
29002;SDS011;16102;57.138;-2.118;2022-10-16T06:59:01;0.75;;;0.40;;
29002;SDS011;16102;57.138;-2.118;2022-10-16T07:01:28;0.10;;;0.10;;
29002;SDS011;16102;57.138;-2.118;2022-10-16T07:03:56;0.38;;;0.10;;
29002;SDS011;16102;57.138;-2.118;2022-10-16T07:06:24;0.30;;;0.10;;
29002;SDS011;16102;57.138;-2.118;2022-10-16T07:08:52;0.00;;;0.00;;
29002;SDS011;16102;57.138;-2.118;2022-10-16T07:11:20;0.10;;;0.00;;
29002;SDS011;16102;57.138;-2.118;2022-10-16T07:13:49;0.10;;;0.10;;
29002;SDS011;16102;57.138;-2.118;2022-10-16T07:16:28;0.38;;;0.00;;
29002;SDS011;16102;57.138;-2.118;2022-10-16T07:18:57;0.10;;;0.00;;
29002;SDS011;16102;57.138;-2.118;2022-10-16T07:21:30;0.20;;;0.05;;
29002;SDS011;16102;57.138;-2.118;2022-10-16T07:24:02;1.93;;;0.20;;
29002;SDS011;16102;57.138;-2.118;2022-10-16T07:26:30;0.00;;;0.00;;
29002;SDS011;16102;57.138;-2.118;2022-10-16T07:28:59;0.38;;;0.00;;
29002;SDS011;16102;57.138;-2.118;2022-10-16T07:31:27;0.52;;;0.00;;
29002;SDS011;16102;57.138;-2.118;2022-10-16T07:33:54;0.00;;;0.00;;
29002;SDS011;16102;57.138;-2.118;2022-10-16T07:36:21;2.45;;;0.20;;
29002;SDS011;16102;57.138;-2.118;2022-10-16T07:38:48;0.30;;;0.10;;
29002;SDS011;16102;57.138;-2.118;2022-10-16T07:41:20;0.10;;;0.10;;
29002;SDS011;16102;57.138;-2.118;2022-10-16T07:43:56;0.20;;;0.10;;
29002;SDS011;16102;57.138;-2.118;2022-10-16T07:46:26;0.10;;;0.10;;
29002;SDS011;16102;57.138;-2.118;2022-10-16T07:48:54;0.30;;;0.10;;
29002;SDS011;16102;57.138;-2.118;2022-10-16T07:51:21;0.10;;;0.00;;
29002;SDS011;16102;57.138;-2.118;2022-10-16T07:53:49;0.00;;;0.00;;
29002;SDS011;16102;57.138;-2.118;2022-10-16T07:56:17;0.00;;;0.00;;
29002;SDS011;16102;57.138;-2.118;2022-10-16T07:58:45;0.15;;;0.05;;
29002;SDS011;16102;57.138;-2.118;2022-10-16T08:01:13;0.00;;;0.00;;
29002;SDS011;16102;57.138;-2.118;2022-10-16T08:03:42;0.38;;;0.17;;
29002;SDS011;16102;57.138;-2.118;2022-10-16T08:06:12;0.70;;;0.30;;
29002;SDS011;16102;57.138;-2.118;2022-10-16T08:08:40;0.10;;;0.10;;
29002;SDS011;16102;57.138;-2.118;2022-10-16T08:11:07;0.52;;;0.30;;
29002;SDS011;16102;57.138;-2.118;2022-10-16T08:13:34;0.25;;;0.25;;
29002;SDS011;16102;57.138;-2.118;2022-10-16T08:16:01;0.40;;;0.10;;
29002;SDS011;16102;57.138;-2.118;2022-10-16T08:18:34;0.35;;;0.10;;
29002;SDS011;16102;57.138;-2.118;2022-10-16T08:21:02;0.57;;;0.10;;
29002;SDS011;16102;57.138;-2.118;2022-10-16T08:23:30;0.03;;;0.03;;
29002;SDS011;16102;57.138;-2.118;2022-10-16T08:26:01;0.60;;;0.13;;
29002;SDS011;16102;57.138;-2.118;2022-10-16T08:28:31;0.10;;;0.10;;
29002;SDS011;16102;57.138;-2.118;2022-10-16T08:31:11;0.77;;;0.10;;
29002;SDS011;16102;57.138;-2.118;2022-10-16T08:33:41;0.55;;;0.10;;
29002;SDS011;16102;57.138;-2.118;2022-10-16T08:36:10;1.67;;;0.10;;
29002;SDS011;16102;57.138;-2.118;2022-10-16T08:38:37;1.90;;;0.10;;
29002;SDS011;16102;57.138;-2.118;2022-10-16T08:49:22;0.10;;;0.10;;
29002;SDS011;16102;57.138;-2.118;2022-10-16T08:51:50;0.15;;;0.00;;
29002;SDS011;16102;57.138;-2.118;2022-10-16T08:54:23;0.25;;;0.25;;
29002;SDS011;16102;57.138;-2.118;2022-10-16T08:56:57;0.05;;;0.03;;
29002;SDS011;16102;57.138;-2.118;2022-10-16T08:59:34;0.30;;;0.10;;
29002;SDS011;16102;57.138;-2.118;2022-10-16T09:02:01;0.75;;;0.13;;
29002;SDS011;16102;57.138;-2.118;2022-10-16T09:04:38;0.60;;;0.05;;
29002;SDS011;16102;57.138;-2.118;2022-10-16T09:13:02;0.10;;;0.05;;
29002;SDS011;16102;57.138;-2.118;2022-10-16T09:15:55;0.10;;;0.00;;
29002;SDS011;16102;57.138;-2.118;2022-10-16T09:18:54;0.00;;;0.00;;
29002;SDS011;16102;57.138;-2.118;2022-10-16T09:21:30;0.15;;;0.00;;
29002;SDS011;16102;57.138;-2.118;2022-10-16T09:24:09;0.10;;;0.10;;
29002;SDS011;16102;57.138;-2.118;2022-10-16T09:26:40;0.30;;;0.08;;
29002;SDS011;16102;57.138;-2.118;2022-10-16T09:29:11;0.00;;;0.00;;
29002;SDS011;16102;57.138;-2.118;2022-10-16T09:31:39;0.57;;;0.20;;
29002;SDS011;16102;57.138;-2.118;2022-10-16T09:34:23;1.88;;;0.10;;
29002;SDS011;16102;57.138;-2.118;2022-10-16T09:37:00;0.00;;;0.00;;
29002;SDS011;16102;57.138;-2.118;2022-10-16T09:39:30;0.20;;;0.08;;
29002;SDS011;16102;57.138;-2.118;2022-10-16T09:41:57;1.75;;;0.10;;
29002;SDS011;16102;57.138;-2.118;2022-10-16T09:44:25;0.45;;;0.00;;
29002;SDS011;16102;57.138;-2.118;2022-10-16T09:47:02;0.15;;;0.00;;
29002;SDS011;16102;57.138;-2.118;2022-10-16T09:49:30;0.20;;;0.10;;
29002;SDS011;16102;57.138;-2.118;2022-10-16T09:52:13;0.03;;;0.00;;
29002;SDS011;16102;57.138;-2.118;2022-10-16T09:54:51;0.20;;;0.10;;
29002;SDS011;16102;57.138;-2.118;2022-10-16T09:57:22;1.33;;;0.95;;
29002;SDS011;16102;57.138;-2.118;2022-10-16T09:59:52;5.10;;;2.80;;
29002;SDS011;16102;57.138;-2.118;2022-10-16T10:02:23;1.50;;;1.30;;
29002;SDS011;16102;57.138;-2.118;2022-10-16T10:04:56;2.08;;;1.85;;
29002;SDS011;16102;57.138;-2.118;2022-10-16T10:07:25;0.50;;;0.50;;
29002;SDS011;16102;57.138;-2.118;2022-10-16T10:09:54;0.40;;;0.30;;
29002;SDS011;16102;57.138;-2.118;2022-10-16T10:12:24;0.40;;;0.40;;
29002;SDS011;16102;57.138;-2.118;2022-10-16T10:14:57;0.32;;;0.30;;
29002;SDS011;16102;57.138;-2.118;2022-10-16T10:17:30;2.83;;;0.40;;
29002;SDS011;16102;57.138;-2.118;2022-10-16T10:19:58;0.10;;;0.00;;
29002;SDS011;16102;57.138;-2.118;2022-10-16T10:22:51;0.25;;;0.00;;
29002;SDS011;16102;57.138;-2.118;2022-10-16T10:25:19;0.13;;;0.10;;
29002;SDS011;16102;57.138;-2.118;2022-10-16T10:36:43;0.00;;;0.00;;
29002;SDS011;16102;57.138;-2.118;2022-10-16T10:42:19;0.55;;;0.10;;
29002;SDS011;16102;57.138;-2.118;2022-10-16T10:45:18;0.45;;;0.45;;
29002;SDS011;16102;57.138;-2.118;2022-10-16T10:53:31;0.00;;;0.00;;
29002;SDS011;16102;57.138;-2.118;2022-10-16T10:56:47;0.17;;;0.17;;
29002;SDS011;16102;57.138;-2.118;2022-10-16T11:02:21;0.30;;;0.20;;
29002;SDS011;16102;57.138;-2.118;2022-10-16T11:05:00;0.30;;;0.25;;
29002;SDS011;16102;57.138;-2.118;2022-10-16T11:07:37;0.40;;;0.30;;
29002;SDS011;16102;57.138;-2.118;2022-10-16T11:10:19;0.08;;;0.05;;
29002;SDS011;16102;57.138;-2.118;2022-10-16T11:15:47;0.10;;;0.10;;
29002;SDS011;16102;57.138;-2.118;2022-10-16T11:18:19;0.00;;;0.00;;
29002;SDS011;16102;57.138;-2.118;2022-10-16T11:20:52;9.63;;;7.32;;
29002;SDS011;16102;57.138;-2.118;2022-10-16T11:26:00;16.15;;;10.18;;
29002;SDS011;16102;57.138;-2.118;2022-10-16T11:28:34;2.33;;;1.40;;
29002;SDS011;16102;57.138;-2.118;2022-10-16T11:31:08;3.47;;;2.30;;
29002;SDS011;16102;57.138;-2.118;2022-10-16T11:33:45;5.72;;;3.90;;
29002;SDS011;16102;57.138;-2.118;2022-10-16T11:41:59;0.70;;;0.60;;
29002;SDS011;16102;57.138;-2.118;2022-10-16T11:44:44;0.15;;;0.15;;
29002;SDS011;16102;57.138;-2.118;2022-10-16T11:47:41;0.55;;;0.20;;
29002;SDS011;16102;57.138;-2.118;2022-10-16T11:50:26;0.10;;;0.10;;
29002;SDS011;16102;57.138;-2.118;2022-10-16T11:55:48;2.35;;;0.20;;
29002;SDS011;16102;57.138;-2.118;2022-10-16T12:03:33;0.47;;;0.20;;
29002;SDS011;16102;57.138;-2.118;2022-10-16T12:06:29;0.30;;;0.30;;
29002;SDS011;16102;57.138;-2.118;2022-10-16T12:08:58;0.20;;;0.10;;
29002;SDS011;16102;57.138;-2.118;2022-10-16T12:11:37;0.05;;;0.00;;
29002;SDS011;16102;57.138;-2.118;2022-10-16T12:16:31;0.55;;;0.38;;
29002;SDS011;16102;57.138;-2.118;2022-10-16T12:19:14;0.75;;;0.70;;
29002;SDS011;16102;57.138;-2.118;2022-10-16T12:21:43;2.15;;;1.77;;
29002;SDS011;16102;57.138;-2.118;2022-10-16T12:24:29;0.88;;;0.40;;
29002;SDS011;16102;57.138;-2.118;2022-10-16T12:27:06;0.40;;;0.20;;
29002;SDS011;16102;57.138;-2.118;2022-10-16T12:29:46;0.60;;;0.30;;
29002;SDS011;16102;57.138;-2.118;2022-10-16T12:35:18;0.47;;;0.10;;
29002;SDS011;16102;57.138;-2.118;2022-10-16T12:37:48;0.10;;;0.10;;
29002;SDS011;16102;57.138;-2.118;2022-10-16T12:42:54;0.93;;;0.15;;
29002;SDS011;16102;57.138;-2.118;2022-10-16T12:47:52;1.00;;;0.50;;
29002;SDS011;16102;57.138;-2.118;2022-10-16T12:50:27;0.43;;;0.30;;
29002;SDS011;16102;57.138;-2.118;2022-10-16T12:52:58;1.42;;;0.40;;
29002;SDS011;16102;57.138;-2.118;2022-10-16T12:55:26;0.55;;;0.15;;
29002;SDS011;16102;57.138;-2.118;2022-10-16T13:12:45;0.32;;;0.10;;
29002;SDS011;16102;57.138;-2.118;2022-10-16T13:29:05;1.45;;;0.32;;
29002;SDS011;16102;57.138;-2.118;2022-10-16T13:31:33;0.65;;;0.20;;
29002;SDS011;16102;57.138;-2.118;2022-10-16T13:34:00;0.28;;;0.10;;
29002;SDS011;16102;57.138;-2.118;2022-10-16T13:36:35;0.57;;;0.25;;
29002;SDS011;16102;57.138;-2.118;2022-10-16T13:39:26;0.30;;;0.13;;
29002;SDS011;16102;57.138;-2.118;2022-10-16T13:42:05;1.25;;;0.20;;
29002;SDS011;16102;57.138;-2.118;2022-10-16T13:44:43;0.25;;;0.08;;
29002;SDS011;16102;57.138;-2.118;2022-10-16T13:50:02;0.20;;;0.10;;
29002;SDS011;16102;57.138;-2.118;2022-10-16T13:52:48;1.58;;;0.50;;
29002;SDS011;16102;57.138;-2.118;2022-10-16T13:55:17;1.83;;;0.20;;
29002;SDS011;16102;57.138;-2.118;2022-10-16T13:57:44;0.20;;;0.20;;
29002;SDS011;16102;57.138;-2.118;2022-10-16T14:00:25;1.67;;;0.52;;
29002;SDS011;16102;57.138;-2.118;2022-10-16T14:03:02;5.60;;;2.85;;
29002;SDS011;16102;57.138;-2.118;2022-10-16T14:05:32;18.92;;;12.40;;
29002;SDS011;16102;57.138;-2.118;2022-10-16T14:08:00;7.97;;;4.80;;
29002;SDS011;16102;57.138;-2.118;2022-10-16T14:10:28;20.38;;;12.85;;
29002;SDS011;16102;57.138;-2.118;2022-10-16T14:13:03;50.67;;;30.60;;
29002;SDS011;16102;57.138;-2.118;2022-10-16T14:15:32;50.63;;;32.95;;
29002;SDS011;16102;57.138;-2.118;2022-10-16T14:18:01;11.02;;;6.95;;
29002;SDS011;16102;57.138;-2.118;2022-10-16T14:20:30;19.38;;;13.38;;
29002;SDS011;16102;57.138;-2.118;2022-10-16T14:23:03;2.08;;;0.63;;
29002;SDS011;16102;57.138;-2.118;2022-10-16T14:25:44;2.17;;;1.30;;
29002;SDS011;16102;57.138;-2.118;2022-10-16T14:28:21;1.48;;;0.80;;
29002;SDS011;16102;57.138;-2.118;2022-10-16T14:30:56;1.35;;;0.40;;
29002;SDS011;16102;57.138;-2.118;2022-10-16T14:33:31;1.95;;;0.63;;
29002;SDS011;16102;57.138;-2.118;2022-10-16T14:36:04;0.60;;;0.40;;
29002;SDS011;16102;57.138;-2.118;2022-10-16T14:38:49;0.38;;;0.20;;
29002;SDS011;16102;57.138;-2.118;2022-10-16T14:41:21;1.58;;;0.45;;
29002;SDS011;16102;57.138;-2.118;2022-10-16T14:43:50;2.30;;;0.80;;
29002;SDS011;16102;57.138;-2.118;2022-10-16T14:46:21;2.58;;;0.65;;
29002;SDS011;16102;57.138;-2.118;2022-10-16T14:48:57;1.77;;;1.20;;
29002;SDS011;16102;57.138;-2.118;2022-10-16T14:51:34;2.80;;;1.35;;
29002;SDS011;16102;57.138;-2.118;2022-10-16T14:54:02;1.48;;;1.00;;
29002;SDS011;16102;57.138;-2.118;2022-10-16T14:56:42;1.33;;;0.80;;
29002;SDS011;16102;57.138;-2.118;2022-10-16T14:59:18;1.30;;;0.25;;
29002;SDS011;16102;57.138;-2.118;2022-10-16T15:01:52;1.00;;;0.60;;
29002;SDS011;16102;57.138;-2.118;2022-10-16T15:04:19;0.30;;;0.20;;
29002;SDS011;16102;57.138;-2.118;2022-10-16T15:06:46;0.50;;;0.20;;
29002;SDS011;16102;57.138;-2.118;2022-10-16T15:09:13;1.95;;;1.23;;
29002;SDS011;16102;57.138;-2.118;2022-10-16T15:11:41;0.63;;;0.22;;
29002;SDS011;16102;57.138;-2.118;2022-10-16T15:14:10;2.47;;;0.43;;
29002;SDS011;16102;57.138;-2.118;2022-10-16T15:16:40;1.25;;;0.20;;
29002;SDS011;16102;57.138;-2.118;2022-10-16T15:19:07;1.77;;;0.52;;
29002;SDS011;16102;57.138;-2.118;2022-10-16T15:21:34;1.23;;;0.52;;
29002;SDS011;16102;57.138;-2.118;2022-10-16T15:24:01;0.88;;;0.50;;
29002;SDS011;16102;57.138;-2.118;2022-10-16T15:26:28;1.75;;;0.50;;
29002;SDS011;16102;57.138;-2.118;2022-10-16T15:28:56;1.40;;;0.88;;
29002;SDS011;16102;57.138;-2.118;2022-10-16T15:31:24;1.23;;;0.70;;
29002;SDS011;16102;57.138;-2.118;2022-10-16T15:33:51;1.40;;;0.70;;
29002;SDS011;16102;57.138;-2.118;2022-10-16T15:38:55;2.03;;;0.80;;
29002;SDS011;16102;57.138;-2.118;2022-10-16T15:41:23;1.33;;;0.80;;
29002;SDS011;16102;57.138;-2.118;2022-10-16T15:43:50;14.38;;;8.77;;
29002;SDS011;16102;57.138;-2.118;2022-10-16T15:46:19;33.95;;;19.45;;
29002;SDS011;16102;57.138;-2.118;2022-10-16T15:48:48;28.25;;;15.82;;
29002;SDS011;16102;57.138;-2.118;2022-10-16T15:51:16;8.15;;;5.35;;
29002;SDS011;16102;57.138;-2.118;2022-10-16T15:53:44;6.68;;;3.88;;
29002;SDS011;16102;57.138;-2.118;2022-10-16T15:56:13;3.33;;;2.35;;
29002;SDS011;16102;57.138;-2.118;2022-10-16T15:58:40;3.55;;;1.40;;
29002;SDS011;16102;57.138;-2.118;2022-10-16T16:01:08;3.15;;;1.60;;
29002;SDS011;16102;57.138;-2.118;2022-10-16T16:03:37;1.60;;;1.02;;
29002;SDS011;16102;57.138;-2.118;2022-10-16T16:06:07;2.33;;;1.20;;
29002;SDS011;16102;57.138;-2.118;2022-10-16T16:08:36;2.75;;;1.38;;
29002;SDS011;16102;57.138;-2.118;2022-10-16T16:13:31;1.33;;;0.40;;
29002;SDS011;16102;57.138;-2.118;2022-10-16T16:15:59;0.30;;;0.20;;
29002;SDS011;16102;57.138;-2.118;2022-10-16T16:18:26;1.80;;;0.68;;
29002;SDS011;16102;57.138;-2.118;2022-10-16T16:20:54;1.30;;;0.63;;
29002;SDS011;16102;57.138;-2.118;2022-10-16T16:23:21;1.17;;;0.75;;
29002;SDS011;16102;57.138;-2.118;2022-10-16T16:26:34;5.22;;;1.77;;
29002;SDS011;16102;57.138;-2.118;2022-10-16T16:28:40;4.47;;;1.88;;
29002;SDS011;16102;57.138;-2.118;2022-10-16T16:31:09;4.40;;;2.40;;
29002;SDS011;16102;57.138;-2.118;2022-10-16T16:33:36;2.90;;;1.75;;
29002;SDS011;16102;57.138;-2.118;2022-10-16T16:36:04;2.47;;;1.08;;
29002;SDS011;16102;57.138;-2.118;2022-10-16T16:38:39;1.65;;;0.77;;
29002;SDS011;16102;57.138;-2.118;2022-10-16T16:43:40;1.85;;;0.80;;
29002;SDS011;16102;57.138;-2.118;2022-10-16T16:46:07;0.80;;;0.60;;
29002;SDS011;16102;57.138;-2.118;2022-10-16T16:48:36;4.97;;;1.05;;
29002;SDS011;16102;57.138;-2.118;2022-10-16T16:51:04;2.42;;;1.20;;
29002;SDS011;16102;57.138;-2.118;2022-10-16T16:53:36;0.98;;;0.70;;
29002;SDS011;16102;57.138;-2.118;2022-10-16T16:56:06;1.35;;;0.55;;